sensor_id;sensor_type;location;lat;lon;timestamp;pressure;altitude;pressure_sealevel;temperature;humidity
11888;BME280;6003;42.756;23.130;2022-08-14T00:02:13;156833.09;;;17.13;100.00
11888;BME280;6003;42.756;23.130;2022-08-14T00:04:40;156813.16;;;17.05;100.00
11888;BME280;6003;42.756;23.130;2022-08-14T00:07:07;156819.81;;;17.08;100.00
11888;BME280;6003;42.756;23.130;2022-08-14T00:09:35;156818.47;;;17.07;100.00
11888;BME280;6003;42.756;23.130;2022-08-14T00:12:02;156821.13;;;17.08;100.00
11888;BME280;6003;42.756;23.130;2022-08-14T00:14:30;156814.47;;;17.06;100.00
11888;BME280;6003;42.756;23.130;2022-08-14T00:16:57;156823.81;;;17.09;100.00
11888;BME280;6003;42.756;23.130;2022-08-14T00:19:26;156810.53;;;17.04;100.00
11888;BME280;6003;42.756;23.130;2022-08-14T00:21:53;156797.22;;;16.99;100.00
11888;BME280;6003;42.756;23.130;2022-08-14T00:24:21;156821.13;;;17.08;100.00
11888;BME280;6003;42.756;23.130;2022-08-14T00:26:48;156834.41;;;17.13;100.00
11888;BME280;6003;42.756;23.130;2022-08-14T00:29:15;156834.41;;;17.13;100.00
11888;BME280;6003;42.756;23.130;2022-08-14T00:32:16;156843.69;;;17.17;100.00
11888;BME280;6003;42.756;23.130;2022-08-14T00:34:44;156854.34;;;17.21;100.00
11888;BME280;6003;42.756;23.130;2022-08-14T00:37:11;156868.97;;;17.27;100.00
11888;BME280;6003;42.756;23.130;2022-08-14T00:39:38;156882.22;;;17.32;100.00
11888;BME280;6003;42.756;23.130;2022-08-14T00:42:05;156883.59;;;17.32;100.00
11888;BME280;6003;42.756;23.130;2022-08-14T00:44:32;156879.59;;;17.31;100.00
11888;BME280;6003;42.756;23.130;2022-08-14T00:47:00;156892.88;;;17.36;100.00
11888;BME280;6003;42.756;23.130;2022-08-14T00:49:28;156894.19;;;17.36;100.00
11888;BME280;6003;42.756;23.130;2022-08-14T00:51:58;156906.19;;;17.41;100.00
11888;BME280;6003;42.756;23.130;2022-08-14T00:54:25;156903.47;;;17.40;100.00
11888;BME280;6003;42.756;23.130;2022-08-14T00:56:52;156903.47;;;17.40;100.00
11888;BME280;6003;42.756;23.130;2022-08-14T00:59:20;156906.19;;;17.41;100.00
11888;BME280;6003;42.756;23.130;2022-08-14T01:02:02;156908.81;;;17.42;100.00
11888;BME280;6003;42.756;23.130;2022-08-14T01:04:32;156896.84;;;17.37;100.00
11888;BME280;6003;42.756;23.130;2022-08-14T01:07:02;156915.47;;;17.45;100.00
11888;BME280;6003;42.756;23.130;2022-08-14T01:09:29;156919.41;;;17.46;100.00
11888;BME280;6003;42.756;23.130;2022-08-14T01:11:56;156916.78;;;17.45;100.00
11888;BME280;6003;42.756;23.130;2022-08-14T01:14:24;156919.41;;;17.46;100.00
11888;BME280;6003;42.756;23.130;2022-08-14T01:16:51;156911.47;;;17.43;100.00
11888;BME280;6003;42.756;23.130;2022-08-14T01:19:18;156910.13;;;17.43;100.00
11888;BME280;6003;42.756;23.130;2022-08-14T01:22:05;156892.88;;;17.36;100.00
11888;BME280;6003;42.756;23.130;2022-08-14T01:24:33;156890.25;;;17.35;100.00
11888;BME280;6003;42.756;23.130;2022-08-14T01:27:01;156884.91;;;17.33;100.00
11888;BME280;6003;42.756;23.130;2022-08-14T01:29:30;156902.16;;;17.40;100.00
11888;BME280;6003;42.756;23.130;2022-08-14T01:32:00;156900.84;;;17.39;100.00
11888;BME280;6003;42.756;23.130;2022-08-14T01:34:28;156911.47;;;17.43;100.00
11888;BME280;6003;42.756;23.130;2022-08-14T01:36:58;156918.09;;;17.46;100.00
11888;BME280;6003;42.756;23.130;2022-08-14T01:39:29;156916.78;;;17.45;100.00
11888;BME280;6003;42.756;23.130;2022-08-14T01:41:56;156911.47;;;17.43;100.00
11888;BME280;6003;42.756;23.130;2022-08-14T01:44:26;156906.19;;;17.41;100.00
11888;BME280;6003;42.756;23.130;2022-08-14T01:46:56;156890.25;;;17.35;100.00
11888;BME280;6003;42.756;23.130;2022-08-14T01:49:25;156896.84;;;17.37;100.00
11888;BME280;6003;42.756;23.130;2022-08-14T01:55:12;156868.97;;;17.27;100.00
11888;BME280;6003;42.756;23.130;2022-08-14T01:57:42;156857.00;;;17.22;100.00
11888;BME280;6003;42.756;23.130;2022-08-14T02:00:11;156843.69;;;17.17;100.00
11888;BME280;6003;42.756;23.130;2022-08-14T02:02:40;156847.72;;;17.19;100.00
11888;BME280;6003;42.756;23.130;2022-08-14T02:05:10;156826.44;;;17.10;100.00
11888;BME280;6003;42.756;23.130;2022-08-14T02:07:37;156789.25;;;16.96;100.00
11888;BME280;6003;42.756;23.130;2022-08-14T02:10:06;156779.97;;;16.92;100.00
11888;BME280;6003;42.756;23.130;2022-08-14T02:12:36;156748.13;;;16.80;100.00
11888;BME280;6003;42.756;23.130;2022-08-14T02:15:04;156736.09;;;16.76;100.00
11888;BME280;6003;42.756;23.130;2022-08-14T02:17:32;156733.44;;;16.75;100.00
11888;BME280;6003;42.756;23.130;2022-08-14T02:19:59;156728.13;;;16.73;100.00
11888;BME280;6003;42.756;23.130;2022-08-14T02:22:27;156741.47;;;16.78;100.00
11888;BME280;6003;42.756;23.130;2022-08-14T02:24:54;156741.47;;;16.78;100.00
11888;BME280;6003;42.756;23.130;2022-08-14T02:27:21;156744.09;;;16.79;100.00
11888;BME280;6003;42.756;23.130;2022-08-14T02:29:49;156737.47;;;16.76;100.00
11888;BME280;6003;42.756;23.130;2022-08-14T02:32:20;156733.44;;;16.75;100.00
11888;BME280;6003;42.756;23.130;2022-08-14T02:34:47;156726.81;;;16.72;100.00
11888;BME280;6003;42.756;23.130;2022-08-14T02:37:14;156714.84;;;16.67;100.00
11888;BME280;6003;42.756;23.130;2022-08-14T02:39:44;156693.59;;;16.59;100.00
11888;BME280;6003;42.756;23.130;2022-08-14T02:42:17;156698.91;;;16.61;100.00
11888;BME280;6003;42.756;23.130;2022-08-14T02:44:46;156685.63;;;16.56;100.00
11888;BME280;6003;42.756;23.130;2022-08-14T02:47:16;156665.72;;;16.49;100.00
11888;BME280;6003;42.756;23.130;2022-08-14T02:49:44;156680.28;;;16.54;100.00
11888;BME280;6003;42.756;23.130;2022-08-14T02:52:21;156696.28;;;16.60;100.00
11888;BME280;6003;42.756;23.130;2022-08-14T02:54:50;156688.31;;;16.57;100.00
11888;BME280;6003;42.756;23.130;2022-08-14T02:57:18;156693.59;;;16.59;100.00
11888;BME280;6003;42.756;23.130;2022-08-14T02:59:47;156667.06;;;16.49;100.00
11888;BME280;6003;42.756;23.130;2022-08-14T03:02:17;156671.00;;;16.51;100.00
11888;BME280;6003;42.756;23.130;2022-08-14T03:04:44;156672.31;;;16.51;100.00
11888;BME280;6003;42.756;23.130;2022-08-14T03:07:11;156688.31;;;16.57;100.00
11888;BME280;6003;42.756;23.130;2022-08-14T03:09:41;156677.66;;;16.53;100.00
11888;BME280;6003;42.756;23.130;2022-08-14T03:12:08;156680.28;;;16.54;100.00
11888;BME280;6003;42.756;23.130;2022-08-14T03:14:37;156677.66;;;16.53;100.00
11888;BME280;6003;42.756;23.130;2022-08-14T03:17:07;156686.94;;;16.57;100.00
11888;BME280;6003;42.756;23.130;2022-08-14T03:19:36;156659.09;;;16.46;100.00
11888;BME280;6003;42.756;23.130;2022-08-14T03:22:03;156667.06;;;16.49;100.00
11888;BME280;6003;42.756;23.130;2022-08-14T03:24:30;156682.97;;;16.55;100.00
11888;BME280;6003;42.756;23.130;2022-08-14T03:26:57;156693.59;;;16.59;100.00
11888;BME280;6003;42.756;23.130;2022-08-14T03:29:25;156685.63;;;16.56;100.00
11888;BME280;6003;42.756;23.130;2022-08-14T03:43:47;156834.41;;;17.13;100.00
11888;BME280;6003;42.756;23.130;2022-08-14T03:46:16;156813.16;;;17.05;100.00
11888;BME280;6003;42.756;23.130;2022-08-14T03:48:43;156770.69;;;16.89;100.00
11888;BME280;6003;42.756;23.130;2022-08-14T03:51:11;156762.66;;;16.86;100.00
11888;BME280;6003;42.756;23.130;2022-08-14T03:53:40;156765.34;;;16.87;100.00
11888;BME280;6003;42.756;23.130;2022-08-14T03:56:08;156766.69;;;16.87;100.00
11888;BME280;6003;42.756;23.130;2022-08-14T03:58:38;156762.66;;;16.86;100.00
11888;BME280;6003;42.756;23.130;2022-08-14T04:01:08;156757.41;;;16.84;100.00
11888;BME280;6003;42.756;23.130;2022-08-14T04:03:35;156750.75;;;16.81;100.00
11888;BME280;6003;42.756;23.130;2022-08-14T04:06:02;156760.03;;;16.85;100.00
11888;BME280;6003;42.756;23.130;2022-08-14T04:08:29;156765.34;;;16.87;100.00
11888;BME280;6003;42.756;23.130;2022-08-14T04:10:56;156775.97;;;16.91;100.00
11888;BME280;6003;42.756;23.130;2022-08-14T04:13:23;156770.69;;;16.89;100.00
11888;BME280;6003;42.756;23.130;2022-08-14T04:15:50;156717.47;;;16.68;100.00
11888;BME280;6003;42.756;23.130;2022-08-14T04:18:19;156779.97;;;16.92;100.00
11888;BME280;6003;42.756;23.130;2022-08-14T04:20:46;156779.97;;;16.92;100.00
11888;BME280;6003;42.756;23.130;2022-08-14T04:23:14;156806.50;;;17.03;100.00
11888;BME280;6003;42.756;23.130;2022-08-14T04:25:41;156794.59;;;16.98;100.00
11888;BME280;6003;42.756;23.130;2022-08-14T04:28:11;156814.47;;;17.06;100.00
11888;BME280;6003;42.756;23.130;2022-08-14T04:30:39;156815.84;;;17.06;100.00
11888;BME280;6003;42.756;23.130;2022-08-14T04:33:06;156799.88;;;17.00;100.00
11888;BME280;6003;42.756;23.130;2022-08-14T04:35:35;156815.84;;;17.06;100.00
11888;BME280;6003;42.756;23.130;2022-08-14T04:38:05;156813.16;;;17.05;100.00
11888;BME280;6003;42.756;23.130;2022-08-14T04:40:49;156821.13;;;17.08;100.00
11888;BME280;6003;42.756;23.130;2022-08-14T04:43:34;156842.38;;;17.17;100.00
11888;BME280;6003;42.756;23.130;2022-08-14T04:46:01;156858.31;;;17.23;100.00
11888;BME280;6003;42.756;23.130;2022-08-14T04:48:28;156874.25;;;17.29;100.00
11888;BME280;6003;42.756;23.130;2022-08-14T04:50:56;156882.22;;;17.32;100.00
11888;BME280;6003;42.756;23.130;2022-08-14T04:53:27;156866.28;;;17.26;100.00
11888;BME280;6003;42.756;23.130;2022-08-14T04:55:56;156837.06;;;17.14;100.00
11888;BME280;6003;42.756;23.130;2022-08-14T04:58:25;156829.09;;;17.11;100.00
11888;BME280;6003;42.756;23.130;2022-08-14T05:00:56;156831.78;;;17.12;100.00
11888;BME280;6003;42.756;23.130;2022-08-14T05:03:25;156858.31;;;17.23;100.00
11888;BME280;6003;42.756;23.130;2022-08-14T05:05:54;156853.03;;;17.21;100.00
11888;BME280;6003;42.756;23.130;2022-08-14T05:08:22;156890.25;;;17.35;100.00
11888;BME280;6003;42.756;23.130;2022-08-14T05:10:51;156892.88;;;17.36;100.00
11888;BME280;6003;42.756;23.130;2022-08-14T05:13:19;156904.84;;;17.41;100.00
11888;BME280;6003;42.756;23.130;2022-08-14T05:15:46;156911.47;;;17.43;100.00
11888;BME280;6003;42.756;23.130;2022-08-14T05:18:15;156927.44;;;17.49;100.00
11888;BME280;6003;42.756;23.130;2022-08-14T05:20:44;156952.66;;;17.59;100.00
11888;BME280;6003;42.756;23.130;2022-08-14T05:23:12;156961.97;;;17.63;100.00
11888;BME280;6003;42.756;23.130;2022-08-14T05:25:41;156983.22;;;17.71;100.00
11888;BME280;6003;42.756;23.130;2022-08-14T05:28:10;157009.88;;;17.81;100.00
11888;BME280;6003;42.756;23.130;2022-08-14T05:30:38;156997.84;;;17.76;100.00
11888;BME280;6003;42.756;23.130;2022-08-14T05:33:08;157016.47;;;17.84;100.00
11888;BME280;6003;42.756;23.130;2022-08-14T05:35:37;157044.41;;;17.94;100.00
11888;BME280;6003;42.756;23.130;2022-08-14T05:38:06;157073.66;;;18.06;100.00
11888;BME280;6003;42.756;23.130;2022-08-14T05:40:34;157082.94;;;18.09;100.00
11888;BME280;6003;42.756;23.130;2022-08-14T05:43:03;157114.88;;;18.21;100.00
11888;BME280;6003;42.756;23.130;2022-08-14T05:45:31;157137.50;;;18.30;100.00
11888;BME280;6003;42.756;23.130;2022-08-14T05:47:58;157129.50;;;18.27;100.00
11888;BME280;6003;42.756;23.130;2022-08-14T05:50:26;157144.13;;;18.33;100.00
11888;BME280;6003;42.756;23.130;2022-08-14T05:52:53;157158.72;;;18.38;100.00
11888;BME280;6003;42.756;23.130;2022-08-14T05:55:21;157182.69;;;18.47;100.00
11888;BME280;6003;42.756;23.130;2022-08-14T05:57:50;157187.97;;;18.49;100.00
11888;BME280;6003;42.756;23.130;2022-08-14T06:00:20;157205.28;;;18.56;100.00
11888;BME280;6003;42.756;23.130;2022-08-14T06:02:48;157225.19;;;18.64;100.00
11888;BME280;6003;42.756;23.130;2022-08-14T06:05:14;157233.19;;;18.67;100.00
11888;BME280;6003;42.756;23.130;2022-08-14T06:07:42;157225.19;;;18.64;100.00
11888;BME280;6003;42.756;23.130;2022-08-14T06:10:09;157217.22;;;18.61;100.00
11888;BME280;6003;42.756;23.130;2022-08-14T06:12:36;157225.19;;;18.64;100.00
11888;BME280;6003;42.756;23.130;2022-08-14T06:15:04;157211.94;;;18.59;99.88
11888;BME280;6003;42.756;23.130;2022-08-14T06:17:42;157195.94;;;18.53;100.00
11888;BME280;6003;42.756;23.130;2022-08-14T06:20:10;157187.97;;;18.49;100.00
11888;BME280;6003;42.756;23.130;2022-08-14T06:22:37;157168.06;;;18.42;100.00
11888;BME280;6003;42.756;23.130;2022-08-14T06:25:05;157152.09;;;18.36;100.00
11888;BME280;6003;42.756;23.130;2022-08-14T06:27:35;157148.09;;;18.34;100.00
11888;BME280;6003;42.756;23.130;2022-08-14T06:30:03;157153.44;;;18.36;100.00
11888;BME280;6003;42.756;23.130;2022-08-14T06:32:30;157148.09;;;18.34;100.00
11888;BME280;6003;42.756;23.130;2022-08-14T06:34:59;157148.09;;;18.34;100.00
11888;BME280;6003;42.756;23.130;2022-08-14T06:37:26;157154.75;;;18.37;100.00
11888;BME280;6003;42.756;23.130;2022-08-14T06:39:53;157140.13;;;18.31;100.00
11888;BME280;6003;42.756;23.130;2022-08-14T06:42:20;157105.53;;;18.18;100.00
11888;BME280;6003;42.756;23.130;2022-08-14T06:44:47;157057.72;;;17.99;100.00
11888;BME280;6003;42.756;23.130;2022-08-14T06:47:14;157048.41;;;17.96;100.00
11888;BME280;6003;42.756;23.130;2022-08-14T06:49:41;157004.53;;;17.79;100.00
11888;BME280;6003;42.756;23.130;2022-08-14T06:52:09;157007.19;;;17.80;100.00
11888;BME280;6003;42.756;23.130;2022-08-14T06:54:36;156988.56;;;17.73;100.00
11888;BME280;6003;42.756;23.130;2022-08-14T06:57:03;157004.53;;;17.79;100.00
11888;BME280;6003;42.756;23.130;2022-08-14T06:59:30;157035.13;;;17.91;100.00
11888;BME280;6003;42.756;23.130;2022-08-14T07:01:57;157040.44;;;17.93;100.00
11888;BME280;6003;42.756;23.130;2022-08-14T07:04:42;157045.72;;;17.95;100.00
11888;BME280;6003;42.756;23.130;2022-08-14T07:07:36;157072.34;;;18.05;100.00
11888;BME280;6003;42.756;23.130;2022-08-14T07:10:03;157074.97;;;18.06;100.00
11888;BME280;6003;42.756;23.130;2022-08-14T07:12:31;157085.63;;;18.10;100.00
11888;BME280;6003;42.756;23.130;2022-08-14T07:14:58;157105.53;;;18.18;100.00
11888;BME280;6003;42.756;23.130;2022-08-14T07:17:25;157108.22;;;18.19;100.00
11888;BME280;6003;42.756;23.130;2022-08-14T07:19:53;157136.13;;;18.30;100.00
11888;BME280;6003;42.756;23.130;2022-08-14T07:22:20;157120.16;;;18.23;100.00
11888;BME280;6003;42.756;23.130;2022-08-14T07:24:48;157124.19;;;18.25;100.00
11888;BME280;6003;42.756;23.130;2022-08-14T07:27:15;157124.19;;;18.25;100.00
11888;BME280;6003;42.756;23.130;2022-08-14T07:29:42;157128.13;;;18.26;100.00
11888;BME280;6003;42.756;23.130;2022-08-14T07:32:09;157145.47;;;18.33;100.00
11888;BME280;6003;42.756;23.130;2022-08-14T07:34:37;157140.13;;;18.31;100.00
11888;BME280;6003;42.756;23.130;2022-08-14T07:37:04;157148.09;;;18.34;100.00
11888;BME280;6003;42.756;23.130;2022-08-14T07:39:31;157142.75;;;18.32;100.00
11888;BME280;6003;42.756;23.130;2022-08-14T07:41:59;157146.78;;;18.34;100.00
11888;BME280;6003;42.756;23.130;2022-08-14T07:44:26;157158.72;;;18.38;100.00
11888;BME280;6003;42.756;23.130;2022-08-14T07:46:53;157156.06;;;18.37;100.00
11888;BME280;6003;42.756;23.130;2022-08-14T07:49:20;157118.84;;;18.23;100.00
11888;BME280;6003;42.756;23.130;2022-08-14T07:51:48;157153.44;;;18.36;100.00
11888;BME280;6003;42.756;23.130;2022-08-14T07:54:16;157172.03;;;18.43;100.00
11888;BME280;6003;42.756;23.130;2022-08-14T07:56:43;157193.31;;;18.52;100.00
11888;BME280;6003;42.756;23.130;2022-08-14T07:59:11;157249.19;;;18.73;100.00
11888;BME280;6003;42.756;23.130;2022-08-14T08:01:42;157326.34;;;19.03;100.00
11888;BME280;6003;42.756;23.130;2022-08-14T08:04:10;157422.16;;;19.39;100.00
11888;BME280;6003;42.756;23.130;2022-08-14T08:06:37;157519.34;;;19.77;100.00
11888;BME280;6003;42.756;23.130;2022-08-14T08:09:07;157571.25;;;19.97;98.88
11888;BME280;6003;42.756;23.130;2022-08-14T08:11:35;157677.75;;;20.38;99.21
11888;BME280;6003;42.756;23.130;2022-08-14T08:14:05;157683.03;;;20.40;94.13
11888;BME280;6003;42.756;23.130;2022-08-14T08:16:34;157723.06;;;20.55;94.96
11888;BME280;6003;42.756;23.130;2022-08-14T08:19:02;157684.41;;;20.40;91.37
11888;BME280;6003;42.756;23.130;2022-08-14T08:21:30;157707.03;;;20.49;91.18
11888;BME280;6003;42.756;23.130;2022-08-14T08:23:57;157725.69;;;20.56;92.02
11888;BME280;6003;42.756;23.130;2022-08-14T08:26:28;157723.06;;;20.55;91.88
11888;BME280;6003;42.756;23.130;2022-08-14T08:28:57;157721.72;;;20.55;91.30
11888;BME280;6003;42.756;23.130;2022-08-14T08:31:24;157697.66;;;20.45;91.67
11888;BME280;6003;42.756;23.130;2022-08-14T08:33:53;157725.69;;;20.56;93.80
11888;BME280;6003;42.756;23.130;2022-08-14T08:36:44;157748.34;;;20.65;92.58
11888;BME280;6003;42.756;23.130;2022-08-14T08:39:11;157762.97;;;20.70;90.92
11888;BME280;6003;42.756;23.130;2022-08-14T08:41:44;157792.28;;;20.82;88.92
11888;BME280;6003;42.756;23.130;2022-08-14T08:44:12;157782.97;;;20.78;89.97
11888;BME280;6003;42.756;23.130;2022-08-14T08:46:39;157744.38;;;20.63;89.86
11888;BME280;6003;42.756;23.130;2022-08-14T08:49:10;157761.66;;;20.70;90.80
11888;BME280;6003;42.756;23.130;2022-08-14T08:51:38;157729.72;;;20.58;90.98
11888;BME280;6003;42.756;23.130;2022-08-14T08:54:06;157744.38;;;20.63;90.80
11888;BME280;6003;42.756;23.130;2022-08-14T08:56:39;157793.63;;;20.82;90.41
11888;BME280;6003;42.756;23.130;2022-08-14T08:59:19;157793.63;;;20.82;88.66
11888;BME280;6003;42.756;23.130;2022-08-14T09:01:47;157830.91;;;20.96;89.53
11888;BME280;6003;42.756;23.130;2022-08-14T09:04:17;157852.22;;;21.05;89.14
11888;BME280;6003;42.756;23.130;2022-08-14T09:06:44;157874.88;;;21.13;88.07
11888;BME280;6003;42.756;23.130;2022-08-14T09:09:19;157946.88;;;21.41;88.05
11888;BME280;6003;42.756;23.130;2022-08-14T09:11:46;157925.50;;;21.33;87.18
11888;BME280;6003;42.756;23.130;2022-08-14T09:14:13;157933.50;;;21.36;87.03
11888;BME280;6003;42.756;23.130;2022-08-14T09:16:43;157965.50;;;21.48;85.36
11888;BME280;6003;42.756;23.130;2022-08-14T09:19:10;157998.84;;;21.61;85.52
11888;BME280;6003;42.756;23.130;2022-08-14T09:21:38;158032.13;;;21.74;85.27
11888;BME280;6003;42.756;23.130;2022-08-14T09:24:07;158021.50;;;21.70;85.57
11888;BME280;6003;42.756;23.130;2022-08-14T09:26:35;158042.78;;;21.78;86.25
11888;BME280;6003;42.756;23.130;2022-08-14T09:29:03;158078.78;;;21.92;85.27
11888;BME280;6003;42.756;23.130;2022-08-14T09:31:32;158124.09;;;22.09;82.86
11888;BME280;6003;42.756;23.130;2022-08-14T09:34:11;158068.13;;;21.88;83.79
11888;BME280;6003;42.756;23.130;2022-08-14T09:39:51;158058.81;;;21.84;81.02
11888;BME280;6003;42.756;23.130;2022-08-14T09:42:32;158028.16;;;21.72;82.91
11888;BME280;6003;42.756;23.130;2022-08-14T09:45:12;158062.78;;;21.85;82.88
11888;BME280;6003;42.756;23.130;2022-08-14T09:47:43;158049.44;;;21.80;81.79
11888;BME280;6003;42.756;23.130;2022-08-14T09:50:22;158009.47;;;21.65;82.04
11888;BME280;6003;42.756;23.130;2022-08-14T09:52:52;157964.19;;;21.48;84.61
11888;BME280;6003;42.756;23.130;2022-08-14T09:55:22;157973.50;;;21.51;82.73
11888;BME280;6003;42.756;23.130;2022-08-14T09:57:50;157961.53;;;21.47;81.28
11888;BME280;6003;42.756;23.130;2022-08-14T10:00:21;158082.78;;;21.93;83.51
11888;BME280;6003;42.756;23.130;2022-08-14T10:03:05;158245.44;;;22.56;82.21
11888;BME280;6003;42.756;23.130;2022-08-14T10:05:34;158433.59;;;23.28;79.76
11888;BME280;6003;42.756;23.130;2022-08-14T10:08:02;158425.53;;;23.25;76.05
11888;BME280;6003;42.756;23.130;2022-08-14T10:10:33;158397.56;;;23.14;72.68
11888;BME280;6003;42.756;23.130;2022-08-14T10:13:01;158288.13;;;22.72;74.25
11888;BME280;6003;42.756;23.130;2022-08-14T10:15:30;158294.81;;;22.74;74.86
11888;BME280;6003;42.756;23.130;2022-08-14T10:18:06;158285.47;;;22.71;75.68
11888;BME280;6003;42.756;23.130;2022-08-14T10:20:35;158333.47;;;22.89;75.07
11888;BME280;6003;42.756;23.130;2022-08-14T10:23:11;158346.81;;;22.94;74.03
11888;BME280;6003;42.756;23.130;2022-08-14T10:25:41;158410.91;;;23.19;73.84
11888;BME280;6003;42.756;23.130;2022-08-14T10:28:10;158349.53;;;22.95;72.99
11888;BME280;6003;42.756;23.130;2022-08-14T10:30:42;158322.81;;;22.85;73.72
11888;BME280;6003;42.756;23.130;2022-08-14T10:33:23;158416.22;;;23.21;70.62
11888;BME280;6003;42.756;23.130;2022-08-14T10:35:51;158450.91;;;23.34;70.09
11888;BME280;6003;42.756;23.130;2022-08-14T10:38:28;158449.59;;;23.34;71.99
11888;BME280;6003;42.756;23.130;2022-08-14T10:41:10;158457.59;;;23.37;69.25
11888;BME280;6003;42.756;23.130;2022-08-14T10:43:38;158461.56;;;23.38;68.03
11888;BME280;6003;42.756;23.130;2022-08-14T10:46:17;158442.91;;;23.31;69.01
11888;BME280;6003;42.756;23.130;2022-08-14T10:48:55;158340.16;;;22.92;69.31
11888;BME280;6003;42.756;23.130;2022-08-14T10:51:27;158356.19;;;22.98;70.50
11888;BME280;6003;42.756;23.130;2022-08-14T10:53:55;158346.81;;;22.94;69.51
11888;BME280;6003;42.756;23.130;2022-08-14T10:56:30;158344.16;;;22.93;69.60
11888;BME280;6003;42.756;23.130;2022-08-14T10:59:01;158370.88;;;23.04;70.10
11888;BME280;6003;42.756;23.130;2022-08-14T11:01:31;158400.22;;;23.15;70.06
11888;BME280;6003;42.756;23.130;2022-08-14T11:03:58;158410.91;;;23.19;70.29
11888;BME280;6003;42.756;23.130;2022-08-14T11:06:27;158381.56;;;23.08;69.21
11888;BME280;6003;42.756;23.130;2022-08-14T11:08:55;158445.56;;;23.32;68.47
11888;BME280;6003;42.756;23.130;2022-08-14T11:11:23;158442.91;;;23.31;68.57
11888;BME280;6003;42.756;23.130;2022-08-14T11:13:55;158450.91;;;23.34;68.83
11888;BME280;6003;42.756;23.130;2022-08-14T11:16:23;158420.25;;;23.23;67.16
11888;BME280;6003;42.756;23.130;2022-08-14T11:18:52;158473.59;;;23.43;69.48
11888;BME280;6003;42.756;23.130;2022-08-14T11:21:21;158493.63;;;23.51;68.58
11888;BME280;6003;42.756;23.130;2022-08-14T11:23:49;158417.53;;;23.22;68.80
11888;BME280;6003;42.756;23.130;2022-08-14T11:26:17;158477.56;;;23.45;67.65
11888;BME280;6003;42.756;23.130;2022-08-14T11:28:45;158485.56;;;23.48;67.84
11888;BME280;6003;42.756;23.130;2022-08-14T11:31:16;158501.63;;;23.54;66.27
11888;BME280;6003;42.756;23.130;2022-08-14T11:33:47;158549.69;;;23.72;69.85
11888;BME280;6003;42.756;23.130;2022-08-14T11:36:14;158648.44;;;24.10;71.92
11888;BME280;6003;42.756;23.130;2022-08-14T11:38:43;158703.16;;;24.31;68.25
11888;BME280;6003;42.756;23.130;2022-08-14T11:41:12;158680.47;;;24.22;65.42
11888;BME280;6003;42.756;23.130;2022-08-14T11:43:40;158709.84;;;24.33;67.74
11888;BME280;6003;42.756;23.130;2022-08-14T11:46:19;158731.19;;;24.42;65.16
11888;BME280;6003;42.756;23.130;2022-08-14T11:48:47;158733.97;;;24.43;62.64
11888;BME280;6003;42.756;23.130;2022-08-14T11:51:16;158753.94;;;24.50;63.08
11888;BME280;6003;42.756;23.130;2022-08-14T11:53:51;158777.97;;;24.60;61.66
11888;BME280;6003;42.756;23.130;2022-08-14T11:56:19;158771.34;;;24.57;61.80
11888;BME280;6003;42.756;23.130;2022-08-14T11:58:50;158744.63;;;24.47;60.72
11888;BME280;6003;42.756;23.130;2022-08-14T12:01:25;158757.97;;;24.52;64.39
11888;BME280;6003;42.756;23.130;2022-08-14T12:03:53;158733.97;;;24.43;62.22
11888;BME280;6003;42.756;23.130;2022-08-14T12:06:24;158791.34;;;24.65;65.25
11888;BME280;6003;42.756;23.130;2022-08-14T12:08:55;158699.19;;;24.29;63.04
11888;BME280;6003;42.756;23.130;2022-08-14T12:11:22;158743.28;;;24.46;65.12
11888;BME280;6003;42.756;23.130;2022-08-14T12:13:49;158760.63;;;24.53;64.35
11888;BME280;6003;42.756;23.130;2022-08-14T12:16:16;158683.16;;;24.23;61.85
11888;BME280;6003;42.756;23.130;2022-08-14T12:18:47;158708.50;;;24.33;65.27
11888;BME280;6003;42.756;23.130;2022-08-14T12:21:17;158727.22;;;24.40;64.72
11888;BME280;6003;42.756;23.130;2022-08-14T12:23:45;158727.22;;;24.40;62.86
11888;BME280;6003;42.756;23.130;2022-08-14T12:26:14;158728.56;;;24.41;63.75
11888;BME280;6003;42.756;23.130;2022-08-14T12:28:42;158687.16;;;24.25;62.20
11888;BME280;6003;42.756;23.130;2022-08-14T12:31:14;158673.84;;;24.20;62.81
11888;BME280;6003;42.756;23.130;2022-08-14T12:33:56;158664.44;;;24.16;64.00
11888;BME280;6003;42.756;23.130;2022-08-14T12:36:23;158555.03;;;23.74;64.32
11888;BME280;6003;42.756;23.130;2022-08-14T12:38:52;158560.34;;;23.76;62.97
11888;BME280;6003;42.756;23.130;2022-08-14T12:41:21;158631.09;;;24.03;64.81
11888;BME280;6003;42.756;23.130;2022-08-14T12:43:50;158611.06;;;23.96;64.09
11888;BME280;6003;42.756;23.130;2022-08-14T12:46:22;158587.06;;;23.86;63.82
11888;BME280;6003;42.756;23.130;2022-08-14T12:48:49;158603.06;;;23.93;65.26
11888;BME280;6003;42.756;23.130;2022-08-14T12:51:20;158629.78;;;24.03;66.00
11888;BME280;6003;42.756;23.130;2022-08-14T12:53:47;158581.72;;;23.84;65.13
11888;BME280;6003;42.756;23.130;2022-08-14T12:56:17;158640.44;;;24.07;66.51
11888;BME280;6003;42.756;23.130;2022-08-14T12:58:48;158628.41;;;24.02;62.52
11888;BME280;6003;42.756;23.130;2022-08-14T13:01:23;158644.47;;;24.08;62.50
11888;BME280;6003;42.756;23.130;2022-08-14T13:04:00;158657.78;;;24.14;63.18
11888;BME280;6003;42.756;23.130;2022-08-14T13:06:32;158688.47;;;24.25;63.86
11888;BME280;6003;42.756;23.130;2022-08-14T13:08:59;158720.53;;;24.38;62.89
11888;BME280;6003;42.756;23.130;2022-08-14T13:11:29;158792.66;;;24.65;64.30
11888;BME280;6003;42.756;23.130;2022-08-14T13:13:58;158791.34;;;24.65;61.63